createdAt,value
2019-04-07T00:02:15.523Z,11.03
2019-04-07T00:04:42.998Z,9.60
2019-04-07T00:07:10.325Z,7.22
2019-04-07T00:09:38.715Z,8.80
2019-04-07T00:12:06.146Z,11.00
2019-04-07T00:14:33.439Z,17.12
2019-04-07T00:17:00.795Z,10.90
2019-04-07T00:19:28.362Z,8.83
2019-04-07T00:21:55.766Z,14.55
2019-04-07T00:24:23.113Z,9.45
2019-04-07T00:26:50.321Z,11.12
2019-04-07T00:29:17.780Z,8.80
2019-04-07T00:31:45.049Z,8.05
2019-04-07T00:34:12.244Z,9.63
2019-04-07T00:36:39.686Z,6.72
2019-04-07T00:39:07.620Z,5.62
2019-04-07T00:41:35.379Z,4.95
2019-04-07T00:44:02.644Z,4.28
2019-04-07T00:46:29.872Z,3.45
2019-04-07T00:48:57.700Z,3.77
2019-04-07T00:51:25.583Z,4.17
2019-04-07T00:53:53.059Z,5.05
2019-04-07T00:56:20.532Z,4.25
2019-04-07T00:58:47.826Z,4.58
2019-04-07T01:01:16.493Z,5.00
2019-04-07T01:03:44.354Z,4.50
2019-04-07T01:06:11.754Z,3.87
2019-04-07T01:08:39.040Z,3.50
2019-04-07T01:11:06.297Z,4.65
2019-04-07T01:13:33.601Z,9.08
2019-04-07T01:16:01.326Z,12.10
2019-04-07T01:18:28.680Z,9.15
2019-04-07T01:20:55.876Z,7.60
2019-04-07T01:23:23.508Z,6.15
2019-04-07T01:25:51.046Z,6.97
2019-04-07T01:28:18.630Z,7.80
2019-04-07T01:30:46.153Z,8.60
2019-04-07T01:33:13.352Z,6.12
2019-04-07T01:35:47.917Z,7.80
2019-04-07T01:38:09.496Z,5.83
2019-04-07T01:40:36.892Z,6.90
2019-04-07T01:43:15.303Z,6.97
2019-04-07T01:46:00.933Z,3.70
2019-04-07T01:48:30.257Z,2.95
2019-04-07T01:51:05.704Z,5.33
2019-04-07T01:53:38.594Z,4.30
2019-04-07T01:56:11.011Z,6.47
2019-04-07T01:58:51.715Z,5.65
2019-04-07T02:01:23.512Z,6.45
2019-04-07T02:03:52.782Z,4.42
2019-04-07T02:06:27.728Z,10.58
2019-04-07T02:08:59.548Z,9.43
2019-04-07T02:11:28.749Z,10.40
2019-04-07T02:14:10.175Z,14.80
2019-04-07T02:16:42.128Z,12.37
2019-04-07T02:19:10.973Z,15.05
2019-04-07T02:21:45.805Z,12.73
2019-04-07T02:24:19.184Z,15.13
2019-04-07T02:27:05.933Z,13.03
2019-04-07T02:29:35.772Z,15.63
2019-04-07T02:32:22.876Z,11.43
2019-04-07T02:35:08.748Z,12.05
2019-04-07T02:37:50.117Z,10.08
2019-04-07T02:40:25.174Z,11.37
2019-04-07T02:43:01.618Z,13.43
2019-04-07T02:45:30.716Z,13.62
2019-04-07T02:47:59.844Z,15.05
2019-04-07T02:50:46.545Z,13.35
2019-04-07T02:53:15.990Z,15.00
2019-04-07T02:56:02.003Z,19.00
2019-04-07T02:58:31.305Z,11.48
2019-04-07T03:01:04.050Z,14.10
2019-04-07T03:03:36.719Z,19.05
2019-04-07T03:06:26.232Z,12.58
2019-04-07T03:08:47.789Z,12.45
2019-04-07T03:11:29.164Z,19.32
2019-04-07T03:13:58.652Z,21.73
2019-04-07T03:16:31.155Z,16.95
2019-04-07T03:19:06.525Z,16.57
2019-04-07T03:21:38.732Z,10.13
2019-04-07T03:24:26.541Z,9.83
2019-04-07T03:27:04.268Z,10.13
2019-04-07T03:29:49.319Z,17.77
2019-04-07T03:32:35.604Z,14.78
2019-04-07T03:35:06.893Z,14.98
2019-04-07T03:37:53.134Z,12.80
2019-04-07T03:40:38.582Z,9.37
2019-04-07T03:43:07.645Z,12.90
2019-04-07T03:45:51.985Z,12.63
2019-04-07T03:48:38.976Z,11.73
2019-04-07T03:51:13.824Z,13.55
2019-04-07T03:53:59.401Z,9.95
2019-04-07T03:56:31.374Z,12.33
2019-04-07T03:59:00.209Z,9.93
2019-04-07T04:01:33.184Z,7.95
2019-04-07T04:04:08.157Z,10.65
2019-04-07T04:06:53.458Z,10.00
2019-04-07T04:09:31.081Z,9.58
2019-04-07T04:12:07.206Z,9.70
2019-04-07T04:14:43.219Z,9.55
2019-04-07T04:17:11.572Z,9.48
2019-04-07T04:19:38.865Z,8.30
2019-04-07T04:22:07.175Z,8.28
2019-04-07T04:24:35.084Z,8.70
2019-04-07T04:27:02.529Z,6.53
2019-04-07T04:29:29.896Z,6.28
2019-04-07T04:31:57.258Z,8.65
2019-04-07T04:34:25.124Z,8.30
2019-04-07T04:36:53.048Z,7.37
2019-04-07T04:39:21.485Z,9.08
2019-04-07T04:41:49.129Z,6.17
2019-04-07T04:44:16.592Z,9.48
2019-04-07T04:46:43.863Z,10.35
2019-04-07T04:49:11.825Z,9.28
2019-04-07T04:51:39.930Z,7.22
2019-04-07T04:54:08.335Z,8.30
2019-04-07T04:56:36.140Z,6.10
2019-04-07T04:59:04.099Z,6.30
2019-04-07T05:01:32.143Z,4.80
2019-04-07T05:03:59.557Z,3.62
2019-04-07T05:06:26.767Z,2.85
2019-04-07T05:08:54.535Z,2.95
2019-04-07T05:11:21.861Z,2.83
2019-04-07T05:13:50.136Z,2.65
2019-04-07T05:16:17.577Z,5.03
2019-04-07T05:18:45.006Z,4.67
2019-04-07T05:21:13.437Z,3.40
2019-04-07T05:23:40.736Z,3.58
2019-04-07T05:26:08.880Z,3.00
2019-04-07T05:28:36.980Z,3.30
2019-04-07T05:31:05.700Z,7.72
2019-04-07T05:33:33.223Z,4.28
2019-04-07T05:36:00.555Z,4.12
2019-04-07T05:38:27.789Z,5.17
2019-04-07T05:40:55.350Z,5.03
2019-04-07T05:43:22.723Z,4.72
2019-04-07T05:45:50.071Z,6.83
2019-04-07T05:48:18.536Z,5.92
2019-04-07T05:50:46.323Z,5.30
2019-04-07T05:53:14.762Z,5.50
2019-04-07T05:55:42.598Z,4.40
2019-04-07T05:58:10.547Z,4.58
2019-04-07T06:00:39.075Z,6.45
2019-04-07T06:03:08.379Z,4.20
2019-04-07T06:05:35.693Z,4.55
2019-04-07T06:08:20.886Z,3.87
2019-04-07T06:10:31.947Z,6.37
2019-04-07T06:12:59.557Z,6.25
2019-04-07T06:15:26.795Z,4.50
2019-04-07T06:17:58.790Z,3.98
2019-04-07T06:20:23.543Z,5.50
2019-04-07T06:22:53.637Z,3.95
2019-04-07T06:25:20.742Z,4.30
2019-04-07T06:27:48.893Z,11.05
2019-04-07T06:30:17.519Z,11.67
2019-04-07T06:32:44.901Z,10.32
2019-04-07T06:35:13.902Z,11.12
2019-04-07T06:37:41.760Z,8.65
2019-04-07T06:40:09.121Z,10.50
2019-04-07T06:42:36.515Z,13.72
2019-04-07T06:45:05.386Z,13.35
2019-04-07T06:47:34.498Z,11.22
2019-04-07T06:50:20.604Z,10.32
2019-04-07T06:52:49.536Z,10.60
2019-04-07T06:55:25.484Z,8.88
2019-04-07T06:57:54.913Z,8.53
2019-04-07T07:00:26.515Z,10.40
2019-04-07T07:02:55.547Z,9.78
2019-04-07T07:05:27.838Z,12.23
2019-04-07T07:07:57.321Z,12.43
2019-04-07T07:10:38.056Z,12.87
2019-04-07T07:13:29.923Z,11.57
2019-04-07T07:15:52.893Z,8.48
2019-04-07T07:18:23.730Z,14.35
2019-04-07T07:21:04.275Z,11.97
2019-04-07T07:23:37.383Z,16.82
2019-04-07T07:26:04.800Z,14.03
2019-04-07T07:28:32.597Z,11.95
2019-04-07T07:31:00.032Z,12.23
2019-04-07T07:33:27.998Z,12.90
2019-04-07T07:35:55.388Z,9.38
2019-04-07T07:38:23.186Z,15.15
2019-04-07T07:40:51.442Z,17.30
2019-04-07T07:43:18.920Z,16.12
2019-04-07T07:45:48.326Z,17.07
2019-04-07T07:48:15.120Z,17.82
2019-04-07T07:50:42.352Z,18.20
2019-04-07T07:53:10.345Z,10.82
2019-04-07T07:55:38.580Z,12.45
2019-04-07T07:58:05.914Z,12.40
2019-04-07T08:00:34.523Z,11.05
2019-04-07T08:03:02.178Z,17.40
2019-04-07T08:05:31.771Z,17.80
2019-04-07T08:07:58.398Z,12.13
2019-04-07T08:10:26.894Z,8.95
2019-04-07T08:12:54.545Z,9.93
2019-04-07T08:15:25.407Z,9.83
2019-04-07T08:17:50.948Z,8.48
2019-04-07T08:20:18.551Z,8.28
2019-04-07T08:22:46.090Z,8.98
2019-04-07T08:25:14.141Z,8.33
2019-04-07T08:27:41.977Z,10.58
2019-04-07T08:30:11.847Z,8.83
2019-04-07T08:32:43.205Z,8.48
2019-04-07T08:35:10.624Z,9.80
2019-04-07T08:37:38.386Z,10.08
2019-04-07T08:40:07.682Z,11.96
2019-04-07T08:42:35.769Z,8.03
2019-04-07T08:45:03.458Z,6.90
2019-04-07T08:47:31.245Z,10.00
2019-04-07T08:49:58.536Z,8.15
2019-04-07T08:52:26.037Z,6.92
2019-04-07T08:54:53.495Z,7.28
2019-04-07T08:57:21.368Z,7.97
2019-04-07T08:59:49.406Z,8.20
2019-04-07T09:02:18.914Z,8.20
2019-04-07T09:04:49.932Z,9.08
2019-04-07T09:07:15.385Z,7.72
2019-04-07T09:09:46.596Z,12.65
2019-04-07T09:12:11.651Z,10.32
2019-04-07T09:14:40.733Z,7.90
2019-04-07T09:17:23.266Z,6.72
2019-04-07T09:19:49.607Z,6.20
2019-04-07T09:22:23.172Z,7.33
2019-04-07T09:24:58.770Z,10.50
2019-04-07T09:27:34.336Z,7.20
2019-04-07T09:30:05.899Z,6.80
2019-04-07T09:32:42.880Z,7.70
2019-04-07T09:35:26.830Z,6.30
2019-04-07T09:38:14.372Z,6.08
2019-04-07T09:40:59.388Z,6.97
2019-04-07T09:43:30.577Z,8.55
2019-04-07T09:46:04.966Z,7.42
2019-04-07T09:48:52.257Z,8.53
2019-04-07T09:51:25.509Z,7.00
2019-04-07T09:54:11.100Z,9.83
2019-04-07T09:56:57.241Z,6.30
2019-04-07T09:59:35.197Z,7.40
2019-04-07T10:02:06.992Z,5.70
2019-04-07T10:04:42.115Z,5.90
2019-04-07T10:07:12.206Z,6.87
2019-04-07T10:09:45.870Z,6.22
2019-04-07T10:12:24.825Z,7.42
2019-04-07T10:14:59.733Z,7.15
2019-04-07T10:17:34.628Z,5.37
2019-04-07T10:20:12.561Z,6.35
2019-04-07T10:22:44.137Z,6.62
2019-04-07T10:25:13.024Z,7.10
2019-04-07T10:27:48.738Z,5.80
2019-04-07T10:30:24.332Z,7.62
2019-04-07T10:32:56.245Z,4.95
2019-04-07T10:35:34.905Z,4.27
2019-04-07T10:38:07.544Z,2.77
2019-04-07T10:40:54.507Z,3.30
2019-04-07T10:43:30.316Z,3.52
2019-04-07T10:46:02.341Z,3.17
2019-04-07T10:48:34.337Z,4.13
2019-04-07T10:51:12.233Z,3.73
2019-04-07T10:53:41.687Z,3.08
2019-04-07T10:56:19.946Z,3.30
2019-04-07T10:58:54.930Z,3.27
2019-04-07T11:01:29.628Z,3.50
2019-04-07T11:03:59.354Z,4.28
2019-04-07T11:06:32.305Z,3.10
2019-04-07T11:09:10.137Z,2.83
2019-04-07T11:11:54.113Z,2.10
2019-04-07T11:14:29.392Z,2.55
2019-04-07T11:17:00.338Z,2.72
2019-04-07T11:19:28.873Z,3.05
2019-04-07T11:22:00.925Z,2.55
2019-04-07T11:24:32.547Z,2.30
2019-04-07T11:27:04.979Z,2.67
2019-04-07T11:29:34.537Z,2.42
2019-04-07T11:32:07.511Z,3.87
2019-04-07T11:34:36.657Z,2.87
2019-04-07T11:37:10.779Z,3.40
2019-04-07T11:39:47.999Z,2.22
2019-04-07T11:42:17.047Z,2.50
2019-04-07T11:45:03.113Z,2.83
2019-04-07T11:47:38.048Z,2.92
2019-04-07T11:50:07.099Z,2.05
2019-04-07T11:52:36.518Z,4.22
2019-04-07T11:55:13.677Z,2.02
2019-04-07T11:57:45.203Z,2.05
2019-04-07T12:00:14.101Z,2.27
2019-04-07T12:02:55.606Z,2.25
2019-04-07T12:05:31.108Z,2.42
2019-04-07T12:08:06.162Z,2.05
2019-04-07T12:10:41.045Z,2.15
2019-04-07T12:13:13.288Z,1.72
2019-04-07T12:15:48.712Z,1.72
2019-04-07T12:18:34.146Z,1.92
2019-04-07T12:21:08.834Z,1.85
2019-04-07T12:23:54.239Z,2.00
2019-04-07T12:26:27.036Z,2.65
2019-04-07T12:29:12.427Z,2.95
2019-04-07T12:31:47.109Z,2.25
2019-04-07T12:34:16.705Z,2.10
2019-04-07T12:37:06.214Z,2.00
2019-04-07T12:39:41.674Z,1.87
2019-04-07T12:42:26.644Z,2.75
2019-04-07T12:44:58.721Z,2.35
2019-04-07T12:47:30.791Z,2.87
2019-04-07T12:50:19.745Z,3.67
2019-04-07T12:53:06.005Z,2.15
2019-04-07T12:55:41.728Z,2.37
2019-04-07T12:58:11.739Z,1.50
2019-04-07T13:01:03.893Z,1.52
2019-04-07T13:03:27.811Z,1.80
2019-04-07T13:06:12.891Z,1.60
2019-04-07T13:08:56.027Z,2.08
2019-04-07T13:11:35.326Z,1.87
2019-04-07T13:14:03.629Z,1.55
2019-04-07T13:16:30.921Z,1.30
2019-04-07T13:19:11.823Z,1.60
2019-04-07T13:21:44.668Z,1.50
2019-04-07T13:24:13.301Z,2.52
2019-04-07T13:26:43.508Z,1.80
2019-04-07T13:29:18.264Z,2.40
2019-04-07T13:31:50.367Z,1.90
2019-04-07T13:34:25.068Z,2.40
2019-04-07T13:36:56.359Z,1.82
2019-04-07T13:39:25.968Z,1.72
2019-04-07T13:41:58.017Z,1.45
2019-04-07T13:44:45.925Z,1.20
2019-04-07T13:47:15.820Z,2.02
2019-04-07T13:49:44.795Z,1.20
2019-04-07T13:52:23.099Z,1.90
2019-04-07T13:55:08.899Z,1.35
2019-04-07T13:57:44.012Z,1.52
2019-04-07T14:00:16.211Z,0.70
2019-04-07T14:05:21.181Z,0.90
2019-04-07T14:07:55.888Z,1.25
2019-04-07T14:10:25.543Z,1.30
2019-04-07T14:13:07.361Z,0.80
2019-04-07T14:15:39.628Z,1.23
2019-04-07T14:18:14.424Z,1.60
2019-04-07T14:21:00.462Z,1.57
2019-04-07T14:23:41.148Z,1.75
2019-04-07T14:26:13.056Z,2.67
2019-04-07T14:28:42.326Z,1.47
2019-04-07T14:31:17.506Z,1.10
2019-04-07T14:34:03.509Z,0.90
2019-04-07T14:36:48.592Z,1.40
2019-04-07T14:39:17.915Z,0.90
2019-04-07T14:42:04.009Z,1.67
2019-04-07T14:44:33.651Z,2.05
2019-04-07T14:47:03.260Z,1.62
2019-04-07T14:49:35.732Z,2.40
2019-04-07T14:52:19.934Z,1.80
2019-04-07T14:55:07.476Z,2.15
2019-04-07T14:57:51.339Z,1.75
2019-04-07T15:00:38.672Z,2.67
2019-04-07T15:03:06.060Z,1.87
2019-04-07T15:05:35.363Z,1.40
2019-04-07T15:08:10.614Z,2.30
2019-04-07T15:10:42.468Z,3.10
2019-04-07T15:13:11.904Z,2.40
2019-04-07T15:15:39.999Z,2.98
2019-04-07T15:18:07.295Z,2.33
2019-04-07T15:20:34.520Z,1.82
2019-04-07T15:23:02.860Z,4.28
2019-04-07T15:25:31.151Z,2.92
2019-04-07T15:28:00.117Z,2.80
2019-04-07T15:30:27.779Z,1.95
2019-04-07T15:32:57.853Z,2.20
2019-04-07T15:35:24.443Z,2.30
2019-04-07T15:37:52.484Z,4.05
2019-04-07T15:40:20.386Z,2.00
2019-04-07T15:42:50.408Z,1.75
2019-04-07T15:45:16.853Z,1.77
2019-04-07T15:47:44.574Z,1.35
2019-04-07T15:50:11.938Z,1.57
2019-04-07T15:52:42.151Z,2.35
2019-04-07T15:55:08.442Z,2.65
2019-04-07T15:57:36.110Z,2.50
2019-04-07T16:00:05.493Z,2.02
2019-04-07T16:02:33.523Z,2.60
2019-04-07T16:05:03.274Z,2.45
2019-04-07T16:07:30.555Z,1.70
2019-04-07T16:09:58.187Z,1.62
2019-04-07T16:12:26.237Z,3.22
2019-04-07T16:14:53.592Z,4.15
2019-04-07T16:17:21.118Z,2.80
2019-04-07T16:19:53.093Z,2.40
2019-04-07T16:22:17.323Z,2.02
2019-04-07T16:24:45.178Z,1.90
2019-04-07T16:27:12.474Z,3.00
2019-04-07T16:29:39.835Z,2.27
2019-04-07T16:32:08.115Z,2.72
2019-04-07T16:34:38.985Z,2.15
2019-04-07T16:37:04.947Z,2.35
2019-04-07T16:39:34.562Z,2.22
2019-04-07T16:42:02.062Z,2.47
2019-04-07T16:44:29.689Z,1.85
2019-04-07T16:46:59.341Z,1.85
2019-04-07T16:49:25.884Z,2.05
2019-04-07T16:51:53.110Z,1.98
2019-04-07T16:54:21.332Z,2.65
2019-04-07T16:56:50.900Z,2.42
2019-04-07T16:59:19.303Z,2.40
2019-04-07T17:01:46.809Z,2.10
2019-04-07T17:04:14.743Z,3.05
2019-04-07T17:06:42.203Z,2.00
2019-04-07T17:09:13.769Z,1.70
2019-04-07T17:11:40.967Z,1.42
2019-04-07T17:14:09.152Z,2.80
2019-04-07T17:16:36.646Z,2.92
2019-04-07T17:19:04.088Z,2.90
2019-04-07T17:21:31.942Z,2.27
2019-04-07T17:23:59.278Z,1.80
2019-04-07T17:26:27.490Z,1.35
2019-04-07T17:28:56.792Z,1.20
2019-04-07T17:31:23.982Z,1.55
2019-04-07T17:33:52.106Z,2.87
2019-04-07T17:36:22.270Z,3.20
2019-04-07T17:39:09.483Z,2.40
2019-04-07T17:41:37.094Z,1.40
2019-04-07T17:44:22.001Z,1.62
2019-04-07T17:46:49.136Z,1.20
2019-04-07T17:49:32.976Z,2.05
2019-04-07T17:52:16.865Z,1.67
2019-04-07T17:55:02.880Z,1.80
2019-04-07T17:57:34.818Z,2.12
2019-04-07T18:00:05.863Z,1.35
2019-04-07T18:02:38.607Z,1.10
2019-04-07T18:07:43.496Z,1.50
2019-04-07T18:10:13.527Z,1.50
2019-04-07T18:12:49.926Z,1.40
2019-04-07T18:15:19.187Z,1.23
2019-04-07T18:18:04.506Z,1.17
2019-04-07T18:20:49.843Z,1.25
2019-04-07T18:23:37.969Z,1.20
2019-04-07T18:26:08.375Z,1.07
2019-04-07T18:28:55.123Z,0.70
2019-04-07T18:31:40.252Z,0.70
2019-04-07T18:34:27.454Z,0.70
2019-04-07T18:36:59.920Z,0.60
2019-04-07T18:39:51.819Z,0.60
2019-04-07T18:42:24.568Z,0.60
2019-04-07T18:44:59.544Z,0.50
2019-04-07T18:47:32.022Z,0.50
2019-04-07T18:50:07.147Z,0.50
2019-04-07T18:52:34.399Z,0.42
2019-04-07T18:55:07.774Z,0.50
2019-04-07T18:57:53.077Z,0.57
2019-04-07T19:00:27.543Z,0.50
2019-04-07T19:02:58.528Z,0.55
2019-04-07T19:05:36.502Z,0.60
2019-04-07T19:08:22.897Z,0.60
2019-04-07T19:10:53.201Z,0.57
2019-04-07T19:13:37.802Z,0.50
2019-04-07T19:16:19.437Z,0.37
2019-04-07T19:19:02.815Z,0.70
2019-04-07T19:21:31.703Z,0.60
2019-04-07T19:24:19.543Z,0.60
2019-04-07T19:26:54.441Z,0.80
2019-04-07T19:29:42.610Z,0.70
2019-04-07T19:32:17.952Z,0.90
2019-04-07T19:34:53.131Z,0.75
2019-04-07T19:37:37.156Z,0.62
2019-04-07T19:40:12.427Z,0.80
2019-04-07T19:42:43.868Z,0.80
2019-04-07T19:45:27.109Z,0.80
2019-04-07T19:48:05.444Z,0.70
2019-04-07T19:50:35.484Z,0.60
2019-04-07T19:53:12.982Z,0.70
2019-04-07T19:55:58.001Z,0.70
2019-04-07T19:58:36.165Z,0.78
2019-04-07T20:01:15.025Z,1.20
2019-04-07T20:03:44.739Z,1.30
2019-04-07T20:06:22.369Z,1.35
2019-04-07T20:08:50.113Z,0.80
2019-04-07T20:11:27.335Z,1.50
2019-04-07T20:13:56.336Z,1.15
2019-04-07T20:16:34.148Z,1.07
2019-04-07T20:19:21.039Z,1.05
2019-04-07T20:21:55.164Z,1.30
2019-04-07T20:24:37.980Z,1.37
2019-04-07T20:27:25.502Z,1.37
2019-04-07T20:29:56.228Z,1.40
2019-04-07T20:35:20.848Z,1.92
2019-04-07T20:38:06.283Z,1.25
2019-04-07T20:40:50.244Z,0.90
2019-04-07T20:43:28.465Z,0.80
2019-04-07T20:45:57.408Z,1.10
2019-04-07T20:48:38.399Z,1.02
2019-04-07T20:51:17.688Z,0.80
2019-04-07T20:53:55.663Z,0.90
2019-04-07T20:56:31.911Z,0.80
2019-04-07T20:59:04.607Z,0.90
2019-04-07T21:01:33.250Z,0.98
2019-04-07T21:04:20.116Z,1.22
2019-04-07T21:06:49.609Z,1.20
2019-04-07T21:09:35.872Z,1.40
2019-04-07T21:12:21.013Z,1.65
2019-04-07T21:14:55.357Z,1.70
2019-04-07T21:17:24.333Z,1.30
2019-04-07T21:20:02.312Z,1.60
2019-04-07T21:22:47.738Z,1.60
2019-04-07T21:25:28.352Z,1.80
2019-04-07T21:28:05.142Z,2.15
2019-04-07T21:30:36.769Z,1.82
2019-04-07T21:33:11.501Z,2.10
2019-04-07T21:35:46.417Z,1.72
2019-04-07T21:38:29.837Z,1.95
2019-04-07T21:41:01.902Z,2.00
2019-04-07T21:43:30.776Z,1.90
2019-04-07T21:46:05.751Z,1.75
2019-04-07T21:48:39.124Z,1.50
2019-04-07T21:51:26.878Z,1.30
2019-04-07T21:54:02.201Z,1.80
2019-04-07T21:56:43.101Z,1.20
2019-04-07T21:59:30.946Z,1.40
2019-04-07T22:02:01.293Z,2.30
2019-04-07T22:04:30.191Z,1.65
2019-04-07T22:06:59.620Z,1.35
2019-04-07T22:09:32.197Z,1.75
2019-04-07T22:14:26.444Z,1.50
2019-04-07T22:16:54.667Z,1.45
2019-04-07T22:19:22.396Z,0.90
2019-04-07T22:21:53.232Z,0.93
2019-04-07T22:24:18.831Z,0.82
2019-04-07T22:26:49.766Z,0.70
2019-04-07T22:29:16.103Z,0.72
2019-04-07T22:31:47.915Z,0.82
2019-04-07T22:34:16.415Z,0.80
2019-04-07T22:36:45.477Z,0.70
2019-04-07T22:39:12.987Z,0.60
2019-04-07T22:41:41.736Z,0.72
2019-04-07T22:44:09.246Z,1.05
2019-04-07T22:46:37.391Z,0.70
2019-04-07T22:49:04.641Z,0.60
2019-04-07T22:51:32.518Z,1.00
2019-04-07T22:54:00.351Z,1.00
2019-04-07T22:56:27.966Z,0.80
2019-04-07T22:58:56.171Z,1.20
2019-04-07T23:01:23.590Z,1.55
2019-04-07T23:03:51.715Z,1.67
2019-04-07T23:06:19.240Z,4.03
2019-04-07T23:08:46.444Z,3.70
2019-04-07T23:11:14.121Z,3.80
2019-04-07T23:13:41.630Z,2.60
2019-04-07T23:16:13.891Z,2.25
2019-04-07T23:18:38.204Z,2.55
2019-04-07T23:21:05.479Z,1.77
2019-04-07T23:23:32.744Z,1.70
2019-04-07T23:26:00.370Z,1.72
2019-04-07T23:28:27.636Z,1.55
2019-04-07T23:30:54.986Z,1.30
2019-04-07T23:33:22.306Z,1.32
2019-04-07T23:35:49.892Z,1.50
2019-04-07T23:38:17.116Z,1.10
2019-04-07T23:40:44.799Z,1.50
2019-04-07T23:43:12.081Z,1.90
2019-04-07T23:45:39.942Z,1.32
2019-04-07T23:48:08.290Z,1.30
2019-04-07T23:50:35.669Z,1.12
2019-04-07T23:53:21.415Z,0.93
2019-04-07T23:55:48.988Z,0.88
2019-04-07T23:58:16.800Z,0.88
